createdAt,value
2023-12-28T00:01:46.634Z,100542.31
2023-12-28T00:04:13.293Z,100537.00
2023-12-28T00:06:39.874Z,100536.78
2023-12-28T00:09:11.787Z,100541.13
2023-12-28T00:11:39.494Z,100554.34
2023-12-28T00:14:06.066Z,100550.59
2023-12-28T00:16:37.884Z,100550.97
2023-12-28T00:19:08.160Z,100550.44
2023-12-28T00:21:34.835Z,100546.47
2023-12-28T00:24:01.358Z,100542.16
2023-12-28T00:26:27.911Z,100545.28
2023-12-28T00:28:54.376Z,100549.25
2023-12-28T00:31:21.091Z,100554.88
2023-12-28T00:33:47.755Z,100567.81
2023-12-28T00:36:14.353Z,100566.38
2023-12-28T00:38:40.927Z,100566.41
2023-12-28T00:41:07.403Z,100562.03
2023-12-28T00:43:33.866Z,100557.56
2023-12-28T00:46:00.344Z,100558.69
2023-12-28T00:48:27.047Z,100563.28
2023-12-28T00:50:56.306Z,100562.75
2023-12-28T00:53:23.036Z,100571.09
2023-12-28T00:55:49.860Z,100570.47
2023-12-28T00:58:16.376Z,100572.66
2023-12-28T01:00:42.949Z,100574.47
2023-12-28T01:03:09.577Z,100563.00
2023-12-28T01:05:36.110Z,100564.56
2023-12-28T01:08:03.524Z,100573.75
2023-12-28T01:10:30.045Z,100574.88
2023-12-28T01:12:56.624Z,100566.06
2023-12-28T01:15:23.234Z,100568.78
2023-12-28T01:17:49.924Z,100563.19
2023-12-28T01:20:16.501Z,100573.88
2023-12-28T01:22:43.037Z,100562.59
2023-12-28T01:25:09.629Z,100563.94
2023-12-28T01:27:36.152Z,100565.59
2023-12-28T01:30:02.977Z,100559.94
2023-12-28T01:32:29.587Z,100558.31
2023-12-28T01:34:56.228Z,100543.97
2023-12-28T01:37:22.741Z,100535.34
2023-12-28T01:39:49.478Z,100546.19
2023-12-28T01:42:16.139Z,100538.38
2023-12-28T01:44:42.746Z,100540.22
2023-12-28T01:47:09.666Z,100533.13
2023-12-28T01:49:37.907Z,100525.97
2023-12-28T01:52:05.823Z,100534.44
2023-12-28T01:54:33.040Z,100536.47
2023-12-28T01:57:01.345Z,100529.31
2023-12-28T01:59:28.479Z,100525.13
2023-12-28T02:01:57.673Z,100515.06
2023-12-28T02:04:29.536Z,100521.34
2023-12-28T02:06:58.728Z,100516.22
2023-12-28T02:09:26.084Z,100509.72
2023-12-28T02:11:56.161Z,100510.78
2023-12-28T02:14:23.850Z,100510.31
2023-12-28T02:17:08.710Z,100516.81
2023-12-28T02:19:48.505Z,100508.13
2023-12-28T02:22:18.540Z,100511.72
2023-12-28T02:25:03.353Z,100515.97
2023-12-28T02:27:30.116Z,100506.81
2023-12-28T02:29:58.154Z,100507.69
2023-12-28T02:32:36.894Z,100499.38
2023-12-28T02:35:15.489Z,100500.06
2023-12-28T02:37:43.666Z,100494.28
2023-12-28T02:40:10.723Z,100488.09
2023-12-28T02:42:37.377Z,100491.06
2023-12-28T02:45:04.475Z,100490.75
2023-12-28T02:47:31.038Z,100482.25
2023-12-28T02:50:00.432Z,100482.75
2023-12-28T02:52:27.118Z,100474.44
2023-12-28T02:54:53.706Z,100483.44
2023-12-28T02:57:20.261Z,100482.56
2023-12-28T02:59:46.897Z,100485.25
2023-12-28T03:02:13.899Z,100485.50
2023-12-28T03:04:40.453Z,100475.34
2023-12-28T03:07:08.933Z,100476.09
2023-12-28T03:09:35.803Z,100469.28
2023-12-28T03:12:02.499Z,100468.28
2023-12-28T03:14:28.907Z,100475.22
2023-12-28T03:16:55.415Z,100474.56
2023-12-28T03:19:22.023Z,100463.91
2023-12-28T03:21:48.623Z,100461.44
2023-12-28T03:24:15.187Z,100463.28
2023-12-28T03:26:41.815Z,100460.94
2023-12-28T03:29:09.327Z,100454.47
2023-12-28T03:31:40.661Z,100452.81
2023-12-28T03:34:07.911Z,100442.66
2023-12-28T03:36:34.516Z,100439.53
2023-12-28T03:39:00.981Z,100442.53
2023-12-28T03:41:27.579Z,100434.47
2023-12-28T03:43:54.102Z,100433.84
2023-12-28T03:46:20.640Z,100431.50
2023-12-28T03:48:47.512Z,100433.34
2023-12-28T03:51:17.698Z,100435.66
2023-12-28T03:53:44.405Z,100431.16
2023-12-28T03:56:24.953Z,100426.84
2023-12-28T03:58:52.390Z,100423.66
2023-12-28T04:01:20.140Z,100414.16
2023-12-28T04:03:47.886Z,100428.50
2023-12-28T04:06:15.294Z,100423.84
2023-12-28T04:08:43.003Z,100424.78
2023-12-28T04:11:09.967Z,100421.75
2023-12-28T04:13:37.346Z,100425.28
2023-12-28T04:16:04.643Z,100417.09
2023-12-28T04:18:31.365Z,100432.25
2023-12-28T04:20:57.975Z,100421.75
2023-12-28T04:23:24.490Z,100415.78
2023-12-28T04:25:51.023Z,100417.59
2023-12-28T04:28:17.572Z,100409.94
2023-12-28T04:30:44.144Z,100406.44
2023-12-28T04:33:10.734Z,100405.97
2023-12-28T04:35:37.227Z,100401.81
2023-12-28T04:38:04.001Z,100398.13
2023-12-28T04:40:30.690Z,100399.94
2023-12-28T04:42:57.133Z,100392.06
2023-12-28T04:45:23.736Z,100390.56
2023-12-28T04:47:50.331Z,100388.41
2023-12-28T04:50:16.948Z,100384.66
2023-12-28T04:52:43.408Z,100384.78
2023-12-28T04:55:09.930Z,100378.56
2023-12-28T04:57:36.418Z,100389.59
2023-12-28T05:00:04.185Z,100390.44
2023-12-28T05:02:30.668Z,100399.63
2023-12-28T05:04:57.239Z,100397.53
2023-12-28T05:07:23.800Z,100391.44
2023-12-28T05:09:50.308Z,100392.88
2023-12-28T05:12:16.917Z,100395.59
2023-12-28T05:14:43.647Z,100402.19
2023-12-28T05:17:10.152Z,100401.38
2023-12-28T05:19:36.742Z,100413.09
2023-12-28T05:22:04.928Z,100404.56
2023-12-28T05:24:31.553Z,100409.50
2023-12-28T05:26:58.192Z,100408.91
2023-12-28T05:29:24.683Z,100412.78
2023-12-28T05:31:51.230Z,100413.25
2023-12-28T05:34:17.865Z,100405.31
2023-12-28T05:36:46.883Z,100405.69
2023-12-28T05:39:16.192Z,100405.00
2023-12-28T05:41:42.724Z,100395.34
2023-12-28T05:44:09.202Z,100404.63
2023-12-28T05:46:35.698Z,100411.28
2023-12-28T05:49:02.306Z,100417.28
2023-12-28T05:51:28.788Z,100419.91
2023-12-28T05:53:55.324Z,100421.31
2023-12-28T05:56:21.837Z,100421.00
2023-12-28T05:58:48.340Z,100424.50
2023-12-28T06:01:15.041Z,100409.56
2023-12-28T06:03:41.722Z,100403.38
2023-12-28T06:06:08.266Z,100413.59
2023-12-28T06:08:34.852Z,100412.66
2023-12-28T06:11:01.458Z,100399.16
2023-12-28T06:13:27.947Z,100405.28
2023-12-28T06:15:54.493Z,100417.75
2023-12-28T06:18:21.117Z,100426.22
2023-12-28T06:20:47.683Z,100425.41
2023-12-28T06:23:14.251Z,100414.91
2023-12-28T06:25:40.767Z,100411.66
2023-12-28T06:28:07.319Z,100396.72
2023-12-28T06:30:34.009Z,100390.69
2023-12-28T06:33:00.632Z,100388.56
2023-12-28T06:35:27.220Z,100390.69
2023-12-28T06:37:53.800Z,100400.72
2023-12-28T06:40:20.343Z,100419.44
2023-12-28T06:42:46.890Z,100431.59
2023-12-28T06:45:13.483Z,100443.22
2023-12-28T06:47:40.091Z,100450.56
2023-12-28T06:50:07.293Z,100455.09
2023-12-28T06:52:34.192Z,100454.88
2023-12-28T06:55:00.808Z,100455.91
2023-12-28T06:57:27.415Z,100460.63
2023-12-28T06:59:53.989Z,100453.34
2023-12-28T07:02:20.476Z,100454.44
2023-12-28T07:04:47.137Z,100452.81
2023-12-28T07:07:13.670Z,100443.75
2023-12-28T07:09:40.238Z,100448.84
2023-12-28T07:12:07.351Z,100442.72
2023-12-28T07:14:33.812Z,100447.97
2023-12-28T07:17:01.574Z,100446.22
2023-12-28T07:19:28.132Z,100445.16
2023-12-28T07:21:54.844Z,100450.19
2023-12-28T07:24:21.407Z,100441.03
2023-12-28T07:26:47.913Z,100443.84
2023-12-28T07:29:14.460Z,100445.72
2023-12-28T07:31:41.094Z,100443.97
2023-12-28T07:34:07.836Z,100454.00
2023-12-28T07:36:34.374Z,100455.69
2023-12-28T07:39:00.932Z,100447.13
2023-12-28T07:41:27.433Z,100461.13
2023-12-28T07:43:53.933Z,100473.69
2023-12-28T07:46:20.590Z,100470.13
2023-12-28T07:48:47.299Z,100476.22
2023-12-28T07:51:14.529Z,100477.94
2023-12-28T07:53:41.067Z,100475.00
2023-12-28T07:56:08.085Z,100468.47
2023-12-28T07:58:35.047Z,100467.09
2023-12-28T08:01:01.720Z,100467.03
2023-12-28T08:03:28.400Z,100461.94
2023-12-28T08:05:55.299Z,100455.84
2023-12-28T08:08:21.707Z,100461.09
2023-12-28T08:10:48.160Z,100449.50
2023-12-28T08:13:14.845Z,100453.25
2023-12-28T08:15:41.497Z,100454.38
2023-12-28T08:18:08.117Z,100448.97
2023-12-28T08:20:34.775Z,100448.34
2023-12-28T08:23:10.780Z,100461.00
2023-12-28T08:25:44.054Z,100454.75
2023-12-28T08:28:10.760Z,100452.28
2023-12-28T08:30:37.456Z,100450.16
2023-12-28T08:33:04.519Z,100460.13
2023-12-28T08:35:31.154Z,100461.16
2023-12-28T08:37:57.712Z,100466.69
2023-12-28T08:40:24.307Z,100467.88
2023-12-28T08:42:50.903Z,100460.59
2023-12-28T08:45:17.598Z,100466.09
2023-12-28T08:47:44.032Z,100469.97
2023-12-28T08:50:10.727Z,100462.50
2023-12-28T08:52:37.192Z,100461.88
2023-12-28T08:55:04.511Z,100473.31
2023-12-28T08:57:39.998Z,100472.09
2023-12-28T09:00:10.654Z,100464.31
2023-12-28T09:02:37.241Z,100458.72
2023-12-28T09:05:04.118Z,100460.41
2023-12-28T09:07:30.637Z,100459.75
2023-12-28T09:09:57.177Z,100453.47
2023-12-28T09:12:24.296Z,100459.44
2023-12-28T09:14:53.654Z,100458.94
2023-12-28T09:17:23.954Z,100455.47
2023-12-28T09:19:50.806Z,100445.44
2023-12-28T09:22:17.455Z,100443.47
2023-12-28T09:24:43.988Z,100437.22
2023-12-28T09:27:10.579Z,100432.56
2023-12-28T09:29:37.060Z,100423.72
2023-12-28T09:32:03.664Z,100428.75
2023-12-28T09:34:30.308Z,100426.59
2023-12-28T09:36:56.935Z,100415.41
2023-12-28T09:39:23.475Z,100411.25
2023-12-28T09:41:56.574Z,100418.91
2023-12-28T09:44:25.746Z,100411.75
2023-12-28T09:46:54.636Z,100400.06
2023-12-28T09:49:22.863Z,100392.59
2023-12-28T09:51:49.575Z,100389.91
2023-12-28T09:54:16.034Z,100389.91
2023-12-28T09:56:42.975Z,100383.88
2023-12-28T09:59:09.822Z,100384.72
2023-12-28T10:01:37.211Z,100381.56
2023-12-28T10:04:05.139Z,100375.50
2023-12-28T10:06:31.754Z,100375.72
2023-12-28T10:08:58.287Z,100369.16
2023-12-28T10:11:26.579Z,100355.13
2023-12-28T10:13:54.810Z,100359.69
2023-12-28T10:16:21.397Z,100352.56
2023-12-28T10:18:47.968Z,100355.69
2023-12-28T10:21:14.843Z,100348.66
2023-12-28T10:23:41.598Z,100345.47
2023-12-28T10:26:09.815Z,100348.78
2023-12-28T10:28:40.658Z,100346.09
2023-12-28T10:31:09.432Z,100345.72
2023-12-28T10:33:37.659Z,100350.22
2023-12-28T10:36:07.934Z,100337.66
2023-12-28T10:38:39.273Z,100335.16
2023-12-28T10:41:09.743Z,100321.06
2023-12-28T10:44:07.627Z,100325.78
2023-12-28T10:46:42.309Z,100332.19
2023-12-28T10:49:16.018Z,100320.97
2023-12-28T10:51:45.123Z,100340.09
2023-12-28T10:54:24.488Z,100330.97
2023-12-28T10:57:20.885Z,100322.69
2023-12-28T10:59:59.924Z,100318.69
2023-12-28T11:02:30.079Z,100319.19
2023-12-28T11:04:58.013Z,100315.72
2023-12-28T11:07:25.459Z,100317.25
2023-12-28T11:09:56.102Z,100310.94
2023-12-28T11:12:23.972Z,100291.22
2023-12-28T11:14:53.804Z,100298.81
2023-12-28T11:17:21.690Z,100294.66
2023-12-28T11:19:50.809Z,100291.09
2023-12-28T11:22:17.655Z,100297.50
2023-12-28T11:24:44.204Z,100283.91
2023-12-28T11:27:11.624Z,100288.19
2023-12-28T11:29:38.517Z,100283.25
2023-12-28T11:32:05.449Z,100276.38
2023-12-28T11:34:35.078Z,100280.28
2023-12-28T11:37:07.117Z,100285.25
2023-12-28T11:39:35.724Z,100274.56
2023-12-28T11:42:07.209Z,100258.44
2023-12-28T11:44:48.039Z,100255.72
2023-12-28T11:47:18.258Z,100240.75
2023-12-28T11:49:48.738Z,100238.69
2023-12-28T11:52:33.782Z,100232.34
2023-12-28T11:55:01.905Z,100225.66
2023-12-28T11:57:28.778Z,100213.13
2023-12-28T12:00:00.625Z,100214.50
2023-12-28T12:02:27.840Z,100219.97
2023-12-28T12:04:56.046Z,100220.16
2023-12-28T12:07:23.022Z,100223.19
2023-12-28T12:09:49.547Z,100225.50
2023-12-28T12:12:17.541Z,100224.09
2023-12-28T12:14:44.370Z,100216.44
2023-12-28T12:17:11.014Z,100213.47
2023-12-28T12:19:38.626Z,100207.03
2023-12-28T12:22:05.355Z,100216.97
2023-12-28T12:24:34.132Z,100214.13
2023-12-28T12:27:03.317Z,100212.16
2023-12-28T12:29:31.293Z,100210.47
2023-12-28T12:31:58.165Z,100197.03
2023-12-28T12:34:25.005Z,100198.66
2023-12-28T12:36:55.171Z,100205.97
2023-12-28T12:39:25.427Z,100196.00
2023-12-28T12:41:52.448Z,100217.38
2023-12-28T12:44:21.679Z,100209.59
2023-12-28T12:46:48.507Z,100219.47
2023-12-28T12:49:17.143Z,100210.78
2023-12-28T12:51:43.812Z,100216.50
2023-12-28T12:54:10.530Z,100204.03
2023-12-28T12:56:37.151Z,100204.47
2023-12-28T12:59:03.707Z,100204.94
2023-12-28T13:01:30.380Z,100206.47
2023-12-28T13:03:58.130Z,100195.22
2023-12-28T13:06:24.907Z,100189.50
2023-12-28T13:08:51.534Z,100179.97
2023-12-28T13:11:18.099Z,100188.97
2023-12-28T13:13:44.803Z,100192.19
2023-12-28T13:16:11.396Z,100190.00
2023-12-28T13:18:38.187Z,100189.28
2023-12-28T13:21:04.937Z,100197.00
2023-12-28T13:23:31.743Z,100194.72
2023-12-28T13:25:58.258Z,100195.09
2023-12-28T13:28:24.675Z,100202.34
2023-12-28T13:30:52.268Z,100208.91
2023-12-28T13:33:19.038Z,100206.63
2023-12-28T13:35:45.731Z,100195.47
2023-12-28T13:38:12.267Z,100192.16
2023-12-28T13:40:38.674Z,100188.31
2023-12-28T13:43:05.320Z,100192.53
2023-12-28T13:45:31.937Z,100209.53
2023-12-28T13:47:58.570Z,100216.25
2023-12-28T13:50:25.192Z,100222.41
2023-12-28T13:52:51.624Z,100217.28
2023-12-28T13:55:18.217Z,100216.09
2023-12-28T13:57:44.664Z,100204.63
2023-12-28T14:00:12.009Z,100214.59
2023-12-28T14:02:38.725Z,100209.28
2023-12-28T14:05:06.161Z,100203.25
2023-12-28T14:07:32.800Z,100191.75
2023-12-28T14:09:59.340Z,100189.75
2023-12-28T14:12:25.870Z,100187.63
2023-12-28T14:14:52.457Z,100192.09
2023-12-28T14:17:20.933Z,100192.91
2023-12-28T14:22:14.833Z,100197.34
2023-12-28T14:24:41.589Z,100210.44
2023-12-28T14:27:08.699Z,100214.38
2023-12-28T14:29:35.500Z,100212.38
2023-12-28T14:32:02.468Z,100214.22
2023-12-28T14:34:29.583Z,100213.19
2023-12-28T14:36:56.873Z,100224.28
2023-12-28T14:39:24.102Z,100235.16
2023-12-28T14:41:50.584Z,100232.03
2023-12-28T14:44:17.132Z,100239.25
2023-12-28T14:46:43.630Z,100244.78
2023-12-28T14:49:10.375Z,100245.16
2023-12-28T14:51:37.031Z,100250.72
2023-12-28T14:54:03.688Z,100236.88
2023-12-28T14:56:39.836Z,100219.34
2023-12-28T14:59:11.475Z,100214.19
2023-12-28T15:01:38.017Z,100215.19
2023-12-28T15:04:05.051Z,100205.91
2023-12-28T15:06:31.662Z,100203.13
2023-12-28T15:08:58.102Z,100211.34
2023-12-28T15:11:33.858Z,100211.72
2023-12-28T15:14:08.594Z,100204.91
2023-12-28T15:16:36.275Z,100212.78
2023-12-28T15:19:03.081Z,100220.53
2023-12-28T15:21:29.900Z,100220.06
2023-12-28T15:23:56.674Z,100224.75
2023-12-28T15:26:23.256Z,100221.63
2023-12-28T15:28:49.756Z,100206.13
2023-12-28T15:31:17.458Z,100209.50
2023-12-28T15:33:44.129Z,100197.06
2023-12-28T15:36:10.723Z,100179.75
2023-12-28T15:38:37.277Z,100176.88
2023-12-28T15:41:04.031Z,100176.72
2023-12-28T15:43:30.596Z,100170.31
2023-12-28T15:45:57.091Z,100167.66
2023-12-28T15:48:24.161Z,100165.91
2023-12-28T15:50:50.793Z,100167.63
2023-12-28T15:53:17.307Z,100168.09
2023-12-28T15:55:43.747Z,100177.41
2023-12-28T15:58:10.343Z,100184.69
2023-12-28T16:00:37.001Z,100211.81
2023-12-28T16:03:04.296Z,100196.63
2023-12-28T16:05:30.852Z,100201.75
2023-12-28T16:07:57.950Z,100200.25
2023-12-28T16:10:25.053Z,100211.78
2023-12-28T16:12:52.321Z,100208.56
2023-12-28T16:15:19.259Z,100206.19
2023-12-28T16:17:47.837Z,100200.81
2023-12-28T16:20:15.283Z,100197.84
2023-12-28T16:22:42.162Z,100197.84
2023-12-28T16:25:09.071Z,100181.13
2023-12-28T16:27:36.465Z,100174.00
2023-12-28T16:30:03.060Z,100189.16
2023-12-28T16:32:29.635Z,100192.63
2023-12-28T16:34:56.477Z,100179.63
2023-12-28T16:37:23.072Z,100173.25
2023-12-28T16:39:49.644Z,100161.19
2023-12-28T16:42:16.205Z,100188.66
2023-12-28T16:44:44.472Z,100211.75
2023-12-28T16:47:12.244Z,100190.81
2023-12-28T16:49:39.619Z,100188.31
2023-12-28T16:52:06.387Z,100202.47
2023-12-28T16:54:33.030Z,100203.13
2023-12-28T16:57:00.064Z,100196.75
2023-12-28T16:59:26.829Z,100198.88
2023-12-28T17:01:53.391Z,100195.41
2023-12-28T17:04:19.976Z,100188.41
2023-12-28T17:06:46.533Z,100200.06
2023-12-28T17:09:13.116Z,100198.06
2023-12-28T17:11:45.689Z,100193.06
2023-12-28T17:14:12.553Z,100203.03
2023-12-28T17:16:39.297Z,100207.78
2023-12-28T17:19:05.932Z,100213.06
2023-12-28T17:21:36.127Z,100214.41
2023-12-28T17:24:05.456Z,100217.59
2023-12-28T17:26:35.813Z,100212.75
2023-12-28T17:29:07.500Z,100210.44
2023-12-28T17:31:36.176Z,100208.06
2023-12-28T17:34:03.935Z,100217.16
2023-12-28T17:36:32.877Z,100233.63
2023-12-28T17:39:08.038Z,100232.81
2023-12-28T17:41:38.592Z,100236.81
2023-12-28T17:44:08.365Z,100234.28
2023-12-28T17:46:52.562Z,100231.28
2023-12-28T17:49:32.081Z,100235.03
2023-12-28T17:52:02.409Z,100225.72
2023-12-28T17:54:29.180Z,100228.03
2023-12-28T17:56:55.768Z,100230.16
2023-12-28T17:59:23.157Z,100229.34
2023-12-28T18:01:56.333Z,100229.31
2023-12-28T18:04:23.214Z,100224.78
2023-12-28T18:06:51.855Z,100230.09
2023-12-28T18:09:18.388Z,100241.91
2023-12-28T18:11:44.904Z,100241.25
2023-12-28T18:14:11.416Z,100225.94
2023-12-28T18:16:37.869Z,100227.63
2023-12-28T18:19:05.502Z,100233.59
2023-12-28T18:21:32.522Z,100222.59
2023-12-28T18:23:59.058Z,100220.63
2023-12-28T18:26:28.015Z,100215.28
2023-12-28T18:28:55.179Z,100213.97
2023-12-28T18:31:21.814Z,100214.81
2023-12-28T18:33:51.150Z,100212.66
2023-12-28T18:36:19.273Z,100207.66
2023-12-28T18:38:46.238Z,100198.94
2023-12-28T18:41:13.255Z,100195.25
2023-12-28T18:43:39.807Z,100194.25
2023-12-28T18:46:06.388Z,100200.41
2023-12-28T18:48:32.841Z,100207.22
2023-12-28T18:50:59.372Z,100206.38
2023-12-28T18:53:26.024Z,100203.16
2023-12-28T18:55:53.772Z,100206.81
2023-12-28T18:58:20.490Z,100197.72
2023-12-28T19:00:47.247Z,100192.25
2023-12-28T19:03:13.690Z,100193.00
2023-12-28T19:05:40.472Z,100192.63
2023-12-28T19:08:09.489Z,100193.44
2023-12-28T19:10:36.742Z,100192.16
2023-12-28T19:13:03.350Z,100192.47
2023-12-28T19:15:29.793Z,100196.66
2023-12-28T19:17:56.404Z,100192.69
2023-12-28T19:20:22.917Z,100190.81
2023-12-28T19:22:49.353Z,100194.81
2023-12-28T19:25:17.206Z,100192.81
2023-12-28T19:27:43.849Z,100185.97
2023-12-28T19:30:11.138Z,100180.16
2023-12-28T19:32:37.913Z,100177.84
2023-12-28T19:35:05.018Z,100180.03
2023-12-28T19:37:31.622Z,100187.81
2023-12-28T19:39:58.254Z,100182.47
2023-12-28T19:42:24.797Z,100185.00
2023-12-28T19:44:51.308Z,100179.47
2023-12-28T19:47:17.812Z,100176.78
2023-12-28T19:49:44.455Z,100178.59
2023-12-28T19:52:11.266Z,100171.94
2023-12-28T19:54:37.709Z,100180.56
2023-12-28T19:57:04.762Z,100184.06
2023-12-28T19:59:31.265Z,100175.91
2023-12-28T20:01:59.166Z,100181.41
2023-12-28T20:04:25.957Z,100181.72
2023-12-28T20:06:52.626Z,100179.38
2023-12-28T20:09:19.099Z,100174.34
2023-12-28T20:11:49.369Z,100194.16
2023-12-28T20:14:17.085Z,100189.19
2023-12-28T20:16:46.367Z,100200.50
2023-12-28T20:19:13.655Z,100204.50
2023-12-28T20:21:41.101Z,100199.88
2023-12-28T20:24:09.658Z,100191.38
2023-12-28T20:26:36.556Z,100189.97
2023-12-28T20:29:03.107Z,100195.97
2023-12-28T20:31:32.851Z,100195.09
2023-12-28T20:33:59.834Z,100188.34
2023-12-28T20:36:26.610Z,100201.09
2023-12-28T20:38:53.128Z,100202.44
2023-12-28T20:41:20.195Z,100211.59
2023-12-28T20:43:47.373Z,100210.97
2023-12-28T20:46:14.017Z,100204.31
2023-12-28T20:48:40.648Z,100199.84
2023-12-28T20:51:08.426Z,100195.81
2023-12-28T20:53:36.240Z,100188.00
2023-12-28T20:56:03.610Z,100194.00
2023-12-28T20:58:30.115Z,100194.34
2023-12-28T21:00:56.687Z,100185.69
2023-12-28T21:03:23.216Z,100194.19
2023-12-28T21:05:49.817Z,100197.50
2023-12-28T21:08:16.444Z,100194.19
2023-12-28T21:10:42.974Z,100188.00
2023-12-28T21:13:12.204Z,100193.16
2023-12-28T21:15:38.780Z,100201.31
2023-12-28T21:18:12.949Z,100207.31
2023-12-28T21:21:00.696Z,100202.50
2023-12-28T21:23:33.637Z,100204.13
2023-12-28T21:26:00.179Z,100199.97
2023-12-28T21:28:26.690Z,100206.78
2023-12-28T21:30:53.280Z,100202.78
2023-12-28T21:33:19.898Z,100204.94
2023-12-28T21:35:46.379Z,100207.13
2023-12-28T21:38:12.898Z,100205.63
2023-12-28T21:40:40.949Z,100198.97
2023-12-28T21:43:11.808Z,100195.47
2023-12-28T21:45:38.534Z,100198.13
2023-12-28T21:48:06.157Z,100196.31
2023-12-28T21:50:32.867Z,100197.31
2023-12-28T21:52:59.369Z,100194.66
2023-12-28T21:55:25.819Z,100196.63
2023-12-28T21:57:52.366Z,100202.50
2023-12-28T22:00:19.163Z,100201.84
2023-12-28T22:02:45.674Z,100204.97
2023-12-28T22:05:12.334Z,100203.66
2023-12-28T22:07:38.844Z,100208.47
2023-12-28T22:10:07.026Z,100211.00
2023-12-28T22:12:33.822Z,100194.53
2023-12-28T22:15:00.602Z,100193.84
2023-12-28T22:17:27.247Z,100195.50
2023-12-28T22:19:54.292Z,100177.56
2023-12-28T22:22:21.069Z,100182.19
2023-12-28T22:24:47.648Z,100192.19
2023-12-28T22:27:14.195Z,100193.50
2023-12-28T22:29:40.907Z,100192.75
2023-12-28T22:32:07.548Z,100189.84
2023-12-28T22:34:34.251Z,100199.66
2023-12-28T22:37:01.631Z,100200.81
2023-12-28T22:39:28.402Z,100189.69
2023-12-28T22:41:55.015Z,100193.69
2023-12-28T22:44:21.546Z,100182.53
2023-12-28T22:46:48.102Z,100177.22
2023-12-28T22:49:14.593Z,100167.41
2023-12-28T22:51:41.295Z,100165.91
2023-12-28T22:54:07.792Z,100162.56
2023-12-28T22:56:34.341Z,100166.09
2023-12-28T22:59:00.871Z,100168.91
2023-12-28T23:01:27.440Z,100177.91
2023-12-28T23:03:54.025Z,100169.22
2023-12-28T23:06:20.498Z,100171.56
2023-12-28T23:08:46.998Z,100177.53
2023-12-28T23:11:13.547Z,100178.22
2023-12-28T23:13:40.062Z,100163.41
2023-12-28T23:16:06.968Z,100161.56
2023-12-28T23:18:33.686Z,100164.22
2023-12-28T23:21:01.279Z,100164.75
2023-12-28T23:23:27.788Z,100164.41
2023-12-28T23:25:54.266Z,100165.25
2023-12-28T23:28:20.862Z,100164.34
2023-12-28T23:30:47.483Z,100165.16
2023-12-28T23:33:15.163Z,100164.22
2023-12-28T23:35:41.788Z,100166.19
2023-12-28T23:38:08.298Z,100166.56
2023-12-28T23:40:35.056Z,100165.75
2023-12-28T23:43:03.690Z,100169.22
2023-12-28T23:45:30.621Z,100157.59
2023-12-28T23:47:57.333Z,100160.41
2023-12-28T23:50:23.863Z,100167.72
2023-12-28T23:52:50.403Z,100162.75
2023-12-28T23:55:17.103Z,100160.34
2023-12-28T23:57:43.473Z,100154.88
